ADDS METAR Data INFO
IDs: Format: Raw Decoded Include TAF

Data at: 0708 UTC 19 Oct 2017

KAAA 190655Z AUTO 19005KT 10SM CLR 12/09 A3009 RMK AO2 T01150092
KAAA 190635Z AUTO 19004KT 10SM CLR 12/09 A3010 RMK AO2 T01170092
KAAA 190615Z AUTO 19005KT 10SM CLR 12/09 A3010 RMK AO2 T01200091
KAAA 190555Z AUTO 19004KT 10SM CLR 12/09 A3010 RMK AO2 T01200092 10178 20119 402270065
KAAA 190535Z AUTO 19005KT 10SM CLR 12/09 A3010 RMK AO2 T01200090
KAAA 190515Z AUTO 18006KT 10SM CLR 12/09 A3010 RMK AO2 T01200090
KAAA 190455Z AUTO 18006KT 10SM CLR 13/09 A3010 RMK AO2 T01250091
KAAA 190435Z AUTO 18005KT 10SM CLR 13/09 A3011 RMK AO2 T01260090
KAAA 190415Z AUTO 18004KT 10SM CLR 13/09 A3011 RMK AO2 T01290090
KAAA 190355Z AUTO 19003KT 10SM CLR 13/09 A3010 RMK AO2 T01340091
KAAA 190335Z AUTO 20003KT 10SM CLR 14/09 A3010 RMK AO2 T01370092
KAAA 190315Z AUTO 20003KT 10SM CLR 14/09 A3010 RMK AO2 T01430092
KAAA 190255Z AUTO 18008KT 10SM CLR 15/09 A3009 RMK AO2 T01490092
KAAA 190235Z AUTO 18009KT 10SM CLR 15/09 A3008 RMK AO2 T01500091
KAAA 190215Z AUTO 19009KT 10SM CLR 15/09 A3008 RMK AO2 T01500090
KAAA 190155Z AUTO 18009KT 10SM CLR 15/09 A3008 RMK AO2 T01500085
KAAA 190135Z AUTO 19007KT 10SM CLR 15/08 A3008 RMK AO2 T01500082
KAAA 190115Z AUTO 19008KT 10SM CLR 15/08 A3008 RMK AO2 T01540080
KAAA 190055Z AUTO 18008KT 10SM CLR 16/08 A3008 RMK AO2 T01610080
KAAA 190035Z AUTO 18006KT 10SM CLR 17/08 A3008 RMK AO2 T01670080
KAAA 190015Z AUTO 19006KT 10SM CLR 17/08 A3008 RMK AO2 T01720080
KAAA 182355Z AUTO 19005KT 10SM CLR 18/08 A3008 RMK AO2 T01790077 10227 20179
KAAA 182335Z AUTO 19006KT 10SM CLR 19/08 A3008 RMK AO2 T01850077
KAAA 182315Z AUTO 19005KT 10SM CLR 19/08 A3007 RMK AO2 T01920075
KAAA 182255Z AUTO 19006KT 10SM CLR 20/07 A3007 RMK AO2 T02040072
KAAA 182235Z AUTO 19007G14KT 10SM CLR 21/07 A3007 RMK AO2 T02120070
KAAA 182215Z AUTO 19010G16KT 10SM CLR 22/07 A3007 RMK AO2 T02180069
KAAA 182155Z AUTO 19007G15KT 170V230 10SM CLR 22/07 A3007 RMK AO2 T02210070
KAAA 182135Z AUTO 20008G18KT 170V240 10SM CLR 22/07 A3007 RMK AO2 T02210069
KAAA 182115Z AUTO 19009G18KT 10SM CLR 22/07 A3007 RMK AO2 T02210067
KAAA 182055Z AUTO 18013G19KT 10SM CLR 23/07 A3007 RMK AO2 T02250067
KAAA 182035Z AUTO 20008G18KT 170V240 10SM CLR 22/07 A3008 RMK AO2 T02230066
KAAA 182015Z AUTO 19011G16KT 170V230 10SM CLR 23/06 A3009 RMK AO2 T02250064
KAAA 181955Z AUTO 18010G15KT 10SM CLR 23/06 A3009 RMK AO2 T02270063
KAAA 181935Z AUTO 19010G15KT 10SM CLR 23/06 A3010 RMK AO2 T02250064
KAAA 181915Z AUTO 19009KT 10SM CLR 22/07 A3010 RMK AO2 T02220066
KAAA 181855Z AUTO 20008G16KT 170V230 10SM CLR 22/07 A3010 RMK AO2 T02200068
KAAA 181835Z AUTO 21008KT 150V240 10SM CLR 22/07 A3011 RMK AO2 T02150073
KAAA 181815Z AUTO 19010G16KT 10SM CLR 21/07 A3012 RMK AO2 T02140074
KAAA 181755Z AUTO 19010G16KT 10SM CLR 21/07 A3013 RMK AO2 T02110071 10212 20070
KAAA 181735Z AUTO 20007KT 160V230 10SM CLR 21/08 A3014 RMK AO2 T02120075
KAAA 181715Z AUTO 20007KT 10SM CLR 21/08 A3015 RMK AO2 T02050076
KAAA 181655Z AUTO 19008KT 10SM CLR 20/08 A3016 RMK AO2 T01990079
KAAA 181635Z AUTO 20008G14KT 170V240 10SM CLR 19/07 A3017 RMK AO2 T01920074
KAAA 181615Z AUTO 21008KT 10SM CLR 19/08 A3017 RMK AO2 T01880076
KAAA 181555Z AUTO 20005KT 10SM CLR 18/08 A3018 RMK AO2 T01820077
KAAA 181535Z AUTO 21009KT 180V270 10SM CLR 17/07 A3018 RMK AO2 T01740071
KAAA 181515Z AUTO 21006KT 10SM CLR 17/07 A3019 RMK AO2 T01690072
KAAA 181455Z AUTO 21007KT 10SM CLR 16/08 A3019 RMK AO2 T01590076
KAAA 181435Z AUTO 19008KT 10SM CLR 14/07 A3019 RMK AO2 T01420073
KAAA 181415Z AUTO 19007KT 170V230 10SM CLR 13/07 A3019 RMK AO2 T01310072
KAAA 181355Z AUTO 19006KT 10SM CLR 12/07 A3019 RMK AO2 T01160069
KAAA 181335Z AUTO 18008KT 10SM CLR 10/07 A3019 RMK AO2 T01040066
KAAA 181315Z AUTO 19007KT 10SM CLR 09/06 A3019 RMK AO2 T00900062
KAAA 181255Z AUTO 18006KT 10SM CLR 08/06 A3019 RMK AO2 T00790059
KAAA 181235Z AUTO 18007KT 10SM CLR 07/06 A3019 RMK AO2 T00730056
KAAA 181215Z AUTO 19007KT 10SM CLR 07/06 A3019 RMK AO2 T00720056
KAAA 181155Z AUTO 18007KT 10SM CLR 07/06 A3019 RMK AO2 T00700055 10095 20065
KAAA 181135Z AUTO 18006KT 10SM CLR 07/06 A3019 RMK AO2 T00700055
KAAA 181115Z AUTO 18004KT 10SM CLR 07/06 A3019 RMK AO2 T00680055
KAAA 181055Z AUTO 18003KT 10SM CLR 07/06 A3019 RMK AO2 T00710055
KAAA 181035Z AUTO 17005KT 10SM CLR 07/06 A3019 RMK AO2 T00720056
KAAA 181015Z AUTO 18005KT 10SM CLR 08/06 A3019 RMK AO2 T00760056
KAAA 180955Z AUTO 17006KT 10SM CLR 08/06 A3019 RMK AO2 T00750057
KAAA 180935Z AUTO 18005KT 10SM CLR 08/06 A3019 RMK AO2 T00750056
KAAA 180915Z AUTO 18007KT 10SM CLR 08/06 A3018 RMK AO2 T00760056
KAAA 180855Z AUTO 18007KT 10SM CLR 08/06 A3018 RMK AO2 T00800058
KAAA 180835Z AUTO 18008KT 10SM CLR 08/06 A3018 RMK AO2 T00790057
KAAA 180815Z AUTO 18006KT 10SM CLR 08/06 A3018 RMK AO2 T00820057
KAAA 180755Z AUTO 18007KT 10SM CLR 08/06 A3018 RMK AO2 T00830057
KAAA 180735Z AUTO 18007KT 10SM CLR 09/06 A3018 RMK AO2 T00850057
KAAA 180715Z AUTO 19007KT 10SM CLR 09/06 A3019 RMK AO2 T00900057
KAAA 180655Z AUTO 17006KT 10SM CLR 09/06 A3019 RMK AO2 T00920055
KAAA 180635Z AUTO 18007KT 10SM CLR 09/06 A3019 RMK AO2 T00940055
KAAA 180615Z AUTO 18006KT 10SM CLR 09/05 A3019 RMK AO2 T00920054
KAAA 180555Z AUTO 18005KT 10SM CLR 10/05 A3019 RMK AO2 T00950053 10149 20088 402120059
KAAA 180535Z AUTO 18006KT 10SM CLR 10/05 A3019 RMK AO2 T00980052
KAAA 180515Z AUTO 18007KT 10SM CLR 10/05 A3019 RMK AO2 T01010054
KAAA 180455Z AUTO 18006KT 10SM CLR 10/05 A3019 RMK AO2 T01040053
KAAA 180435Z AUTO 18007KT 10SM CLR 11/05 A3020 RMK AO2 T01060053
KAAA 180415Z AUTO 18005KT 10SM CLR 10/05 A3020 RMK AO2 T01030053
KAAA 180355Z AUTO 18005KT 10SM CLR 11/05 A3020 RMK AO2 T01100054
KAAA 180335Z AUTO 18006KT 10SM CLR 10/05 A3020 RMK AO2 T00970052
KAAA 180315Z AUTO 00000KT 10SM CLR 10/05 A3020 RMK AO2 T00980052
KAAA 180255Z AUTO 00000KT 10SM CLR 11/05 A3020 RMK AO2 T01050053
KAAA 180235Z AUTO 17003KT 10SM CLR 11/05 A3020 RMK AO2 T01090053
KAAA 180215Z AUTO 17004KT 10SM CLR 12/06 A3020 RMK AO2 T01150055
KAAA 180155Z AUTO 18004KT 10SM CLR 12/06 A3020 RMK AO2 T01210055
KAAA 180135Z AUTO 18006KT 10SM CLR 12/06 A3019 RMK AO2 T01230055
KAAA 180115Z AUTO 18005KT 10SM CLR 13/06 A3019 RMK AO2 T01270057
KAAA 180055Z AUTO 19004KT 10SM CLR 13/06 A3019 RMK AO2 T01270057
KAAA 180035Z AUTO 19003KT 10SM CLR 13/06 A3019 RMK AO2 T01330060
KAAA 180015Z AUTO 18006KT 10SM CLR 15/06 A3019 RMK AO2 T01450058
KAAA 172355Z AUTO 18005KT 10SM CLR 15/05 A3019 RMK AO2 T01480053 10212 20148
KAAA 172335Z AUTO 17003KT 10SM CLR 16/05 A3018 RMK AO2 T01550052
KAAA 172315Z AUTO 19003KT 10SM CLR 17/05 A3017 RMK AO2 T01700051
KAAA 172255Z AUTO 20003KT 10SM CLR 18/05 A3017 RMK AO2 T01820049
KAAA 172235Z AUTO 19005KT 10SM CLR 19/05 A3017 RMK AO2 T01920053
KAAA 172215Z AUTO 19008KT 10SM CLR 20/06 A3017 RMK AO2 T02000055
KAAA 172155Z AUTO 19007KT 10SM CLR 20/05 A3017 RMK AO2 T02020054
KAAA 172135Z AUTO 21007KT 180V250 10SM CLR 21/05 A3017 RMK AO2 T02050054
KAAA 172115Z AUTO 18009KT 10SM CLR 21/05 A3018 RMK AO2 T02060051
KAAA 172055Z AUTO 19005KT 10SM CLR 21/05 A3018 RMK AO2 T02100048
KAAA 172035Z AUTO 21006KT 10SM CLR 21/06 A3018 RMK AO2 T02100055
KAAA 172015Z AUTO 20005G15KT 10SM CLR 21/05 A3019 RMK AO2 T02080051
KAAA 171955Z AUTO 19007G16KT 10SM CLR 21/05 A3019 RMK AO2 T02070049
KAAA 171935Z AUTO 19006KT 10SM CLR 21/06 A3020 RMK AO2 T02080059
KAAA 171915Z AUTO 20007G14KT 170V230 10SM CLR 21/05 A3021 RMK AO2 T02070054